Time;durP1;ratioP1;P1;durP2;ratioP2;P2;SDS_P1;SDS_P2;PMS_P1;PMS_P2;Temp;Humidity;BMP_temperature;BMP_pressure;BME280_temperature;BME280_humidity;BME280_pressure;Samples;Min_cycle;Max_cycle;Signal;HPM_P1;HPM_P2
2022/03/08 00:00:55;;;;;;;44.97;19.77;;;-2.60;99.90;;;;;;5051923;28;20509;-52
2022/03/08 00:03:22;;;;;;;46.78;19.23;;;-2.70;99.90;;;;;;5046421;28;20402;-52
2022/03/08 00:05:48;;;;;;;44.65;19.33;;;-2.70;99.90;;;;;;5052732;28;20120;-55
2022/03/08 00:08:15;;;;;;;42.38;18.02;;;-2.80;99.90;;;;;;5051601;28;20425;-52
2022/03/08 00:10:42;;;;;;;39.25;17.52;;;-2.80;99.90;;;;;;5051671;28;20041;-55
2022/03/08 00:13:09;;;;;;;47.25;18.35;;;-2.80;99.90;;;;;;5052523;28;20513;-52
2022/03/08 00:15:36;;;;;;;38.10;18.45;;;-2.90;99.90;;;;;;5052800;28;20049;-53
2022/03/08 00:18:03;;;;;;;42.53;18.63;;;-2.80;99.90;;;;;;5051845;28;20037;-54
2022/03/08 00:20:30;;;;;;;42.08;16.75;;;-2.80;99.90;;;;;;5052070;28;20110;-53
2022/03/08 00:22:58;;;;;;;38.13;17.08;;;-2.90;99.90;;;;;;5052401;28;20124;-53
2022/03/08 00:25:25;;;;;;;47.80;18.67;;;-2.80;99.90;;;;;;5051689;28;20045;-54
2022/03/08 00:27:52;;;;;;;39.25;17.10;;;-2.90;99.90;;;;;;5052222;28;20068;-53
2022/03/08 00:30:23;;;;;;;45.50;18.60;;;-2.90;99.90;;;;;;5052005;28;20448;-55
2022/03/08 00:32:52;;;;;;;42.65;18.27;;;-2.90;99.90;;;;;;5052134;28;20509;-53
2022/03/08 00:35:21;;;;;;;43.92;18.52;;;-2.70;99.90;;;;;;5051584;28;20059;-53
2022/03/08 00:37:49;;;;;;;43.97;17.92;;;-3.00;99.90;;;;;;5052053;28;20041;-52
2022/03/08 00:40:19;;;;;;;42.22;18.27;;;-3.00;99.90;;;;;;5050201;28;20049;-52
2022/03/08 00:42:46;;;;;;;37.67;16.90;;;-3.10;99.90;;;;;;5050553;28;20044;-51
2022/03/08 00:45:14;;;;;;;43.90;17.85;;;-3.10;99.90;;;;;;5047787;28;20505;-53
2022/03/08 00:47:41;;;;;;;46.35;17.95;;;-3.10;99.90;;;;;;5050836;28;20049;-55
2022/03/08 00:50:12;;;;;;;43.15;18.15;;;-3.10;99.90;;;;;;5033870;28;20054;-55
2022/03/08 00:52:39;;;;;;;44.42;18.23;;;-3.10;99.90;;;;;;5034131;28;20099;-55
2022/03/08 00:55:07;;;;;;;42.72;18.38;;;-3.10;99.90;;;;;;5051159;28;20448;-54
2022/03/08 00:57:35;;;;;;;38.42;16.60;;;-3.10;99.90;;;;;;5051749;28;20041;-53
2022/03/08 01:00:05;;;;;;;42.38;17.00;;;-3.10;99.90;;;;;;5051406;28;20447;-52
2022/03/08 01:02:32;;;;;;;44.60;18.38;;;-3.10;99.90;;;;;;5051152;28;20048;-53
2022/03/08 01:04:59;;;;;;;41.13;18.52;;;-3.20;99.90;;;;;;5051675;28;20037;-53
2022/03/08 01:07:26;;;;;;;41.78;17.35;;;-3.20;99.90;;;;;;5051512;28;20489;-55
2022/03/08 01:09:53;;;;;;;38.20;14.45;;;-3.20;99.90;;;;;;5051550;28;20037;-55
2022/03/08 01:12:20;;;;;;;42.33;17.83;;;-3.30;99.90;;;;;;5033208;28;20102;-54
2022/03/08 01:14:48;;;;;;;43.25;16.67;;;-3.30;99.90;;;;;;5051312;28;20056;-54
2022/03/08 01:17:15;;;;;;;44.63;18.63;;;-3.40;99.90;;;;;;5051626;28;20044;-51
2022/03/08 01:19:42;;;;;;;43.78;17.42;;;-3.30;99.90;;;;;;5050506;28;20045;-53
2022/03/08 01:22:11;;;;;;;47.63;17.60;;;-3.40;99.90;;;;;;5033321;28;20049;-54
2022/03/08 01:24:37;;;;;;;46.58;18.40;;;-3.50;99.90;;;;;;5051546;28;20443;-52
2022/03/08 01:27:05;;;;;;;43.22;17.38;;;-3.50;99.90;;;;;;5051399;28;20099;-52
2022/03/08 01:29:31;;;;;;;41.17;17.63;;;-3.60;99.90;;;;;;5046929;28;20055;-52
2022/03/08 01:31:58;;;;;;;43.50;17.23;;;-3.50;99.90;;;;;;5033314;28;20056;-52
2022/03/08 01:34:25;;;;;;;44.58;17.88;;;-3.50;99.90;;;;;;5051436;28;20055;-54
2022/03/08 01:36:52;;;;;;;48.33;20.27;;;-3.60;99.90;;;;;;5036130;28;20044;-52
2022/03/08 01:39:19;;;;;;;46.35;18.55;;;-3.50;99.90;;;;;;5050894;28;20045;-52
2022/03/08 01:41:46;;;;;;;44.15;18.00;;;-3.60;99.90;;;;;;5051097;28;20048;-52
2022/03/08 01:44:12;;;;;;;44.25;19.25;;;-3.60;99.90;;;;;;5051190;28;20045;-52
2022/03/08 01:46:40;;;;;;;46.15;18.75;;;-3.60;99.90;;;;;;5032808;28;20045;-56
2022/03/08 01:49:07;;;;;;;40.10;17.75;;;-3.60;99.90;;;;;;5032867;28;20155;-52
2022/03/08 01:51:37;;;;;;;;;;;-3.60;99.90;;;;;;5033779;28;20045;-52
2022/03/08 01:54:06;;;;;;;44.70;18.27;;;-3.60;99.90;;;;;;5050599;28;19951;-54
2022/03/08 01:56:33;;;;;;;48.72;17.83;;;-3.60;99.90;;;;;;5051011;28;20575;-51
2022/03/08 01:59:02;;;;;;;38.25;16.17;;;-3.70;99.90;;;;;;5050558;28;20048;-52
2022/03/08 02:01:29;;;;;;;45.90;19.13;;;-3.70;99.90;;;;;;5051030;28;20099;-52
2022/03/08 02:03:56;;;;;;;45.45;17.70;;;-3.80;99.90;;;;;;5050569;28;20040;-55
2022/03/08 02:06:23;;;;;;;42.08;17.98;;;-3.80;99.90;;;;;;5051051;28;20047;-51
2022/03/08 02:08:50;;;;;;;44.83;17.85;;;-3.70;99.90;;;;;;5050367;28;20045;-52
2022/03/08 02:11:17;;;;;;;42.05;17.75;;;-3.80;99.90;;;;;;5051033;28;20128;-54
2022/03/08 02:13:44;;;;;;;43.70;17.58;;;-3.80;99.90;;;;;;5050416;28;20053;-53
2022/03/08 02:16:11;;;;;;;51.20;19.67;;;-3.80;99.90;;;;;;5042998;28;20049;-51
2022/03/08 02:18:38;;;;;;;45.10;19.05;;;-3.80;99.90;;;;;;5050849;28;20056;-52
2022/03/08 02:21:06;;;;;;;38.17;13.90;;;-3.80;99.90;;;;;;5050718;28;20094;-54
2022/03/08 02:23:33;;;;;;;45.40;17.70;;;-3.80;99.90;;;;;;5049834;28;20110;-54
2022/03/08 02:26:01;;;;;;;44.83;18.58;;;-3.90;99.90;;;;;;5050935;28;20033;-52
2022/03/08 02:28:29;;;;;;;43.85;17.85;;;-3.90;99.90;;;;;;5050834;28;20041;-52
2022/03/08 02:30:56;;;;;;;49.80;18.60;;;-3.90;99.90;;;;;;5052364;28;20554;-52
2022/03/08 02:33:23;;;;;;;;;;;-3.90;99.90;;;;;;5057086;22;20048;-60
2022/03/08 02:35:49;;;;;;;42.58;18.08;;;-4.00;99.90;;;;;;5041736;28;19995;-60
2022/03/08 02:38:16;;;;;;;38.50;17.20;;;-4.10;99.90;;;;;;5034393;28;20121;-60
2022/03/08 02:40:43;;;;;;;47.08;18.98;;;-4.10;99.90;;;;;;5034410;28;20049;-60
2022/03/08 02:43:12;;;;;;;45.83;18.08;;;-4.00;99.90;;;;;;5033632;28;20518;-60
2022/03/08 02:45:40;;;;;;;51.20;18.67;;;-4.00;99.90;;;;;;5018838;28;20068;-60
2022/03/08 02:48:08;;;;;;;50.70;18.58;;;-4.00;99.90;;;;;;5014514;28;20659;-60
2022/03/08 02:50:35;;;;;;;53.28;19.88;;;-4.00;99.90;;;;;;5022047;28;20107;-60
2022/03/08 02:53:02;;;;;;;;;;;-4.00;99.90;;;;;;5023840;28;20449;-60
2022/03/08 02:55:31;;;;;;;44.13;17.80;;;-4.00;99.90;;;;;;5014585;28;19925;-60
2022/03/08 02:57:59;;;;;;;54.65;19.88;;;-4.00;99.90;;;;;;5016972;28;20495;-60
2022/03/08 03:00:27;;;;;;;44.97;18.27;;;-4.00;99.90;;;;;;5028151;28;20046;-60
2022/03/08 03:02:55;;;;;;;45.22;18.77;;;-4.10;99.90;;;;;;5014232;28;20045;-60
2022/03/08 03:05:22;;;;;;;47.42;18.25;;;-4.10;99.90;;;;;;5014258;28;20276;-60
2022/03/08 03:07:49;;;;;;;47.97;19.42;;;-4.10;99.90;;;;;;5017632;28;20034;-60
2022/03/08 03:10:18;;;;;;;52.78;19.70;;;-4.20;99.90;;;;;;5029374;28;20529;-60
2022/03/08 03:12:46;;;;;;;48.42;19.25;;;-4.10;99.90;;;;;;5014213;28;20096;-60
2022/03/08 03:15:14;;;;;;;50.15;19.70;;;-4.20;99.90;;;;;;5016419;28;20520;-60
2022/03/08 03:17:41;;;;;;;55.10;19.30;;;-4.20;99.90;;;;;;5033370;28;20072;-60
2022/03/08 03:20:11;;;;;;;49.30;19.55;;;-4.20;99.90;;;;;;5013861;28;20046;-60
2022/03/08 03:22:39;;;;;;;47.58;18.63;;;-4.20;99.90;;;;;;5013960;28;20515;-60
2022/03/08 03:25:07;;;;;;;48.47;18.60;;;-4.20;99.90;;;;;;5018899;28;20050;-60
2022/03/08 03:27:35;;;;;;;44.53;19.05;;;-4.20;99.90;;;;;;5026729;28;20445;-60
2022/03/08 03:30:05;;;;;;;49.38;19.10;;;-4.20;99.90;;;;;;5013550;28;20041;-60
2022/03/08 03:32:32;;;;;;;43.38;19.27;;;-4.20;99.90;;;;;;5013472;28;20038;-60
2022/03/08 03:35:00;;;;;;;48.13;18.67;;;-4.30;99.90;;;;;;5021068;28;20033;-60
2022/03/08 03:37:27;;;;;;;51.15;19.42;;;-4.30;99.90;;;;;;5027494;28;20066;-60
2022/03/08 03:39:54;;;;;;;49.13;19.52;;;-4.30;99.90;;;;;;5013364;28;20112;-60
2022/03/08 03:42:21;;;;;;;48.30;19.65;;;-4.30;99.90;;;;;;5013384;28;20040;-60
2022/03/08 03:44:48;;;;;;;46.67;19.27;;;-4.30;99.90;;;;;;5022575;28;20560;-60
2022/03/08 03:47:15;;;;;;;48.50;20.80;;;-4.30;99.90;;;;;;5020841;28;20048;-60
2022/03/08 03:49:42;;;;;;;45.47;19.70;;;-4.30;99.90;;;;;;5013203;28;20495;-60
2022/03/08 03:52:09;;;;;;;47.00;19.38;;;-4.30;99.90;;;;;;5013549;28;20041;-60
2022/03/08 03:54:36;;;;;;;43.42;17.90;;;-4.40;99.90;;;;;;5020990;28;20095;-60
2022/03/08 03:57:03;;;;;;;47.70;19.05;;;-4.40;99.90;;;;;;5022208;28;20049;-60
2022/03/08 03:59:30;;;;;;;51.67;18.60;;;-4.40;99.90;;;;;;5012867;28;20041;-60
2022/03/08 04:01:56;;;;;;;49.67;19.92;;;-4.40;99.90;;;;;;5019649;28;20045;-60
2022/03/08 04:04:23;;;;;;;48.03;19.35;;;-4.40;99.90;;;;;;5027581;28;20585;-60
2022/03/08 04:06:50;;;;;;;38.63;14.73;;;-4.10;99.90;;;;;;5013252;28;20064;-60
2022/03/08 04:09:17;;;;;;;48.67;19.10;;;-4.40;99.90;;;;;;5013142;28;20038;-60
2022/03/08 04:11:44;;;;;;;;;;;-4.50;99.90;;;;;;5029519;28;20100;-60
2022/03/08 04:14:11;;;;;;;50.58;19.13;;;-4.50;99.90;;;;;;5012940;28;19922;-60
2022/03/08 04:16:38;;;;;;;37.22;15.13;;;-4.40;99.90;;;;;;5012994;28;20049;-60
2022/03/08 04:19:05;;;;;;;49.72;20.38;;;-4.40;99.90;;;;;;5012597;28;20057;-60
2022/03/08 04:21:32;;;;;;;49.92;19.75;;;-4.40;99.90;;;;;;5032136;28;20118;-60
2022/03/08 04:23:59;;;;;;;54.67;19.45;;;-4.30;99.90;;;;;;4996769;28;20042;-60
2022/03/08 04:26:26;;;;;;;50.15;19.17;;;-4.30;99.90;;;;;;5012821;28;20046;-60
2022/03/08 04:28:52;;;;;;;52.60;20.33;;;-4.30;99.90;;;;;;5013606;28;20107;-60
2022/03/08 04:31:19;;;;;;;48.10;20.38;;;-4.30;99.90;;;;;;5031692;28;20041;-60
2022/03/08 04:33:46;;;;;;;52.58;21.45;;;-4.40;99.90;;;;;;5031753;28;20080;-60
2022/03/08 04:36:13;;;;;;;51.75;20.40;;;-4.50;99.90;;;;;;5032106;28;20045;-60
2022/03/08 04:38:40;;;;;;;52.25;19.98;;;-4.50;99.90;;;;;;5031177;28;20038;-60
2022/03/08 04:41:07;;;;;;;53.50;19.15;;;-4.50;99.90;;;;;;5028819;28;20075;-60
2022/03/08 04:43:33;;;;;;;36.45;14.02;;;-4.50;99.90;;;;;;5031921;28;20049;-60
2022/03/08 04:46:01;;;;;;;50.05;18.77;;;-4.40;99.90;;;;;;5031840;28;20041;-60
2022/03/08 04:48:29;;;;;;;52.90;20.38;;;-4.40;99.90;;;;;;5031545;28;20072;-60
2022/03/08 04:50:56;;;;;;;55.20;20.58;;;-4.40;99.90;;;;;;5022096;28;20049;-60
2022/03/08 04:53:22;;;;;;;51.83;19.63;;;-4.40;99.90;;;;;;5011793;28;20046;-60
2022/03/08 04:55:49;;;;;;;55.22;21.13;;;-4.50;99.90;;;;;;5024694;28;20555;-60
2022/03/08 04:58:17;;;;;;;54.35;20.30;;;-4.50;99.90;;;;;;5013937;28;20045;-60
2022/03/08 05:00:44;;;;;;;57.00;21.90;;;-4.40;99.90;;;;;;5031656;28;20171;-60
2022/03/08 05:03:11;;;;;;;54.05;21.35;;;-4.40;99.90;;;;;;5031882;28;20041;-60
2022/03/08 05:05:38;;;;;;;54.40;21.23;;;-4.40;99.90;;;;;;5025357;28;20038;-60
2022/03/08 05:08:06;;;;;;;52.30;21.20;;;-4.40;99.90;;;;;;5027960;28;20446;-60
2022/03/08 05:10:33;;;;;;;49.55;19.67;;;-4.40;99.90;;;;;;5011861;28;20048;-60
2022/03/08 05:13:01;;;;;;;48.97;19.90;;;-4.50;99.90;;;;;;5012587;28;20510;-60
2022/03/08 05:15:28;;;;;;;52.83;20.38;;;-4.50;99.90;;;;;;5030839;28;20091;-60
2022/03/08 05:17:55;;;;;;;56.75;21.00;;;-4.60;99.90;;;;;;5018245;28;20057;-60
2022/03/08 05:20:22;;;;;;;;;;;-4.80;99.90;;;;;;5031292;28;20096;-60
2022/03/08 05:22:49;;;;;;;53.95;20.23;;;-4.80;99.90;;;;;;5030715;28;19920;-60
2022/03/08 05:25:16;;;;;;;54.25;20.27;;;-4.80;99.90;;;;;;5021974;28;20044;-60
2022/03/08 05:27:43;;;;;;;50.80;18.70;;;-4.80;99.90;;;;;;5031196;28;20124;-60
2022/03/08 05:30:10;;;;;;;55.00;21.20;;;-4.80;99.90;;;;;;5030570;28;20041;-60
2022/03/08 05:32:37;;;;;;;;;;;-4.80;99.90;;;;;;5030836;28;20037;-60
2022/03/08 05:35:04;;;;;;;53.70;19.85;;;-4.90;99.90;;;;;;5030844;28;20409;-60
2022/03/08 05:37:30;;;;;;;68.43;23.23;;;-4.80;99.90;;;;;;5030899;28;20111;-60
2022/03/08 05:39:57;;;;;;;71.10;24.38;;;-4.80;99.90;;;;;;5030669;28;20092;-60
2022/03/08 05:42:24;;;;;;;67.25;23.77;;;-4.80;99.90;;;;;;5024999;28;20049;-60
2022/03/08 05:44:51;;;;;;;57.60;22.17;;;-4.80;99.90;;;;;;5028079;28;20042;-60
2022/03/08 05:47:18;;;;;;;51.70;20.00;;;-4.80;99.90;;;;;;5030864;28;20124;-60
2022/03/08 05:49:44;;;;;;;46.17;17.85;;;-4.70;99.90;;;;;;5027055;28;20107;-60
2022/03/08 05:52:11;;;;;;;60.83;22.35;;;-4.70;99.90;;;;;;5023196;28;20049;-60
2022/03/08 05:54:38;;;;;;;55.17;20.70;;;-4.70;99.90;;;;;;5031240;28;20037;-60
2022/03/08 05:57:05;;;;;;;55.00;21.48;;;-4.70;99.90;;;;;;5030550;28;20037;-60
2022/03/08 05:59:32;;;;;;;49.20;19.73;;;-4.60;99.90;;;;;;5023898;28;20061;-61
2022/03/08 06:01:59;;;;;;;48.88;20.13;;;-4.50;99.90;;;;;;5011228;28;20042;-60
2022/03/08 06:04:26;;;;;;;47.15;18.80;;;-4.50;99.90;;;;;;5011036;28;20674;-60
2022/03/08 06:06:54;;;;;;;54.38;21.95;;;-4.50;99.90;;;;;;4998344;28;20046;-60
2022/03/08 06:09:21;;;;;;;55.97;20.38;;;-4.30;99.90;;;;;;5029268;28;20073;-60
2022/03/08 06:11:48;;;;;;;60.42;22.52;;;-4.30;99.90;;;;;;5014889;28;20117;-61
2022/03/08 06:14:15;;;;;;;54.00;20.95;;;-4.20;99.90;;;;;;5015197;28;20450;-60
2022/03/08 06:16:42;;;;;;;57.92;23.23;;;-4.10;99.90;;;;;;5027690;28;20045;-61
2022/03/08 06:19:09;;;;;;;56.17;23.55;;;-4.00;99.90;;;;;;5023043;28;20417;-60
2022/03/08 06:21:36;;;;;;;54.63;21.13;;;-3.90;99.90;;;;;;5015048;28;20048;-61
2022/03/08 06:24:03;;;;;;;51.38;20.70;;;-3.90;99.90;;;;;;5016819;28;20042;-61
2022/03/08 06:26:31;;;;;;;54.75;21.40;;;-3.90;99.90;;;;;;5031536;28;20069;-60
2022/03/08 06:28:58;;;;;;;60.28;23.83;;;-3.90;99.90;;;;;;5032327;28;20046;-61
2022/03/08 06:31:25;;;;;;;58.50;23.30;;;-3.80;99.90;;;;;;5032570;28;20033;-60
2022/03/08 06:33:52;;;;;;;57.35;24.05;;;-3.70;99.90;;;;;;5033809;28;20048;-60
2022/03/08 06:36:19;;;;;;;57.22;23.05;;;-3.60;99.90;;;;;;5033603;28;20045;-60
2022/03/08 06:38:46;;;;;;;60.00;23.55;;;-3.50;99.90;;;;;;5028756;28;20042;-61
2022/03/08 06:41:13;;;;;;;59.78;22.63;;;-3.50;99.90;;;;;;5029409;28;20045;-60
2022/03/08 06:43:40;;;;;;;57.13;21.55;;;-3.40;99.90;;;;;;5013522;28;20085;-61
2022/03/08 06:46:08;;;;;;;;;;;-3.30;99.90;;;;;;5014804;28;20042;-61
2022/03/08 06:48:37;;;;;;;54.70;20.00;;;-3.10;99.90;;;;;;5030287;28;19921;-60
2022/03/08 06:51:04;;;;;;;57.72;21.25;;;-3.00;99.90;;;;;;5014927;28;20050;-61
2022/03/08 06:53:32;;;;;;;54.72;21.75;;;-2.90;99.90;;;;;;5014210;28;20498;-61
2022/03/08 06:55:58;;;;;;;50.25;21.13;;;-2.80;99.90;;;;;;5019326;28;20099;-60
2022/03/08 06:58:26;;;;;;;;;;;-2.70;99.90;;;;;;5028506;28;20502;-61
2022/03/08 07:00:54;;;;;;;51.47;20.83;;;-2.70;99.90;;;;;;5014038;28;19936;-61
2022/03/08 07:03:21;;;;;;;50.97;21.20;;;-2.70;99.90;;;;;;5013898;28;20053;-61
2022/03/08 07:05:48;;;;;;;60.83;21.63;;;-2.70;99.90;;;;;;5030277;28;20053;-61
2022/03/08 07:08:15;;;;;;;52.25;21.17;;;-2.60;99.90;;;;;;5014189;28;20128;-61
2022/03/08 07:10:42;;;;;;;47.40;19.90;;;-2.60;99.90;;;;;;5013940;28;20061;-61
2022/03/08 07:13:09;;;;;;;49.75;20.75;;;-2.50;99.90;;;;;;5030687;28;20091;-60
2022/03/08 07:15:36;;;;;;;60.00;20.42;;;-2.50;99.90;;;;;;5018367;28;20041;-61
2022/03/08 07:18:02;;;;;;;52.35;20.52;;;-2.30;99.90;;;;;;5013839;28;20053;-60
2022/03/08 07:20:29;;;;;;;50.17;20.60;;;-2.30;99.90;;;;;;5018257;28;20540;-61
2022/03/08 07:22:56;;;;;;;50.72;19.13;;;-2.10;99.90;;;;;;5031648;28;20041;-61
2022/03/08 07:25:23;;;;;;;47.75;19.67;;;-2.00;99.90;;;;;;5013975;28;20042;-61
2022/03/08 07:27:50;;;;;;;49.47;20.25;;;-2.10;99.90;;;;;;5013855;28;20050;-61
2022/03/08 07:30:17;;;;;;;43.00;19.20;;;-1.90;99.90;;;;;;5023952;28;20050;-60
2022/03/08 07:32:44;;;;;;;51.65;20.98;;;-2.00;99.90;;;;;;5025092;28;20052;-61
2022/03/08 07:35:11;;;;;;;52.83;21.90;;;-1.90;99.90;;;;;;5013794;28;20053;-61
2022/03/08 07:37:39;;;;;;;44.83;19.17;;;-1.80;99.90;;;;;;5013625;28;20129;-61
2022/03/08 07:40:07;;;;;;;48.40;20.35;;;-1.80;99.90;;;;;;5027583;28;20065;-61
2022/03/08 07:42:34;;;;;;;56.88;21.50;;;-1.80;99.90;;;;;;5018372;28;20045;-61
2022/03/08 07:45:01;;;;;;;44.40;19.73;;;-1.80;99.90;;;;;;5013548;28;20038;-61
2022/03/08 07:47:28;;;;;;;49.75;20.58;;;-1.60;99.90;;;;;;5013090;28;20038;-61
2022/03/08 07:49:55;;;;;;;47.70;20.52;;;-1.50;99.90;;;;;;5030480;28;20049;-61
2022/03/08 07:52:22;;;;;;;44.85;20.70;;;-1.40;99.90;;;;;;5013326;28;20042;-61
2022/03/08 07:54:49;;;;;;;40.63;15.52;;;-1.30;99.90;;;;;;5013264;28;20057;-61
2022/03/08 07:57:16;;;;;;;46.40;19.45;;;-1.20;99.90;;;;;;5025779;28;20437;-61
2022/03/08 07:59:43;;;;;;;46.88;19.23;;;-1.10;99.90;;;;;;5024261;28;20553;-61
2022/03/08 08:02:10;;;;;;;47.08;19.35;;;-1.10;99.90;;;;;;5013216;28;20042;-61
2022/03/08 08:04:37;;;;;;;46.55;19.83;;;-1.00;99.90;;;;;;5013096;28;20044;-61
2022/03/08 08:07:04;;;;;;;46.13;19.60;;;-0.90;99.90;;;;;;5030335;28;20041;-61
2022/03/08 08:09:32;;;;;;;52.53;20.85;;;-0.80;99.90;;;;;;5017477;28;20088;-61
2022/03/08 08:12:00;;;;;;;42.72;19.00;;;-0.80;99.90;;;;;;5013044;28;20118;-61
2022/03/08 08:14:26;;;;;;;45.70;20.25;;;-0.60;99.90;;;;;;4995544;28;20100;-61
2022/03/08 08:16:53;;;;;;;48.05;20.05;;;-0.60;99.90;;;;;;5014589;28;20057;-61
2022/03/08 08:19:20;;;;;;;50.33;21.48;;;-0.50;99.90;;;;;;5032356;28;20145;-61
2022/03/08 08:21:47;;;;;;;46.33;19.88;;;-0.40;99.90;;;;;;5032300;28;20049;-60
2022/03/08 08:24:14;;;;;;;34.55;15.02;;;-0.30;99.90;;;;;;5031859;28;20127;-60
2022/03/08 08:26:40;;;;;;;43.50;19.27;;;-0.30;99.90;;;;;;5016485;28;20100;-60
2022/03/08 08:29:07;;;;;;;48.30;19.67;;;-0.20;99.90;;;;;;5011548;28;20046;-60
2022/03/08 08:31:34;;;;;;;50.00;20.45;;;-0.10;99.90;;;;;;5020744;28;20045;-60
2022/03/08 08:34:02;;;;;;;40.47;19.58;;;0.00;99.90;;;;;;5072001;22;20053;-54
2022/03/08 08:36:28;;;;;;;46.08;20.60;;;0.00;99.90;;;;;;5070082;28;20055;-53
2022/03/08 08:38:55;;;;;;;49.92;20.40;;;0.10;99.90;;;;;;5072229;28;20044;-54
2022/03/08 08:41:22;;;;;;;34.53;14.77;;;0.10;99.90;;;;;;5067569;28;20060;-53
2022/03/08 08:43:49;;;;;;;36.10;15.95;;;0.10;99.90;;;;;;5058474;28;20045;-55
2022/03/08 08:46:16;;;;;;;47.08;20.98;;;0.20;99.90;;;;;;5052009;28;20102;-53
2022/03/08 08:48:43;;;;;;;49.72;20.15;;;0.30;99.90;;;;;;5043146;28;20052;-53
2022/03/08 08:51:10;;;;;;;53.60;21.15;;;0.40;99.90;;;;;;5043652;28;20075;-53
2022/03/08 08:53:37;;;;;;;46.92;18.40;;;0.50;99.90;;;;;;5051853;28;20049;-52
2022/03/08 08:56:04;;;;;;;32.13;15.30;;;0.60;99.90;;;;;;5048995;28;20128;-51
2022/03/08 08:58:31;;;;;;;44.58;21.23;;;0.60;99.90;;;;;;5051670;28;20037;-52
2022/03/08 09:00:58;;;;;;;48.40;20.02;;;0.70;99.90;;;;;;5051498;28;20333;-50
2022/03/08 09:03:25;;;;;;;47.22;18.77;;;0.80;99.90;;;;;;5051638;28;20505;-55
2022/03/08 09:05:53;;;;;;;44.13;19.75;;;0.80;99.90;;;;;;5043785;28;20053;-52
2022/03/08 09:08:23;;;;;;;47.78;20.30;;;0.90;99.90;;;;;;5051337;28;20573;-51
2022/03/08 09:10:52;;;;;;;44.92;19.70;;;1.20;99.90;;;;;;5051428;28;20060;-52
2022/03/08 09:13:19;;;;;;;41.55;19.30;;;1.30;99.90;;;;;;5051577;28;20041;-53
2022/03/08 09:15:46;;;;;;;47.15;21.02;;;1.20;99.90;;;;;;5050436;28;20068;-53
2022/03/08 09:18:13;;;;;;;43.22;19.77;;;1.40;99.90;;;;;;5051038;28;20041;-54
2022/03/08 09:20:41;;;;;;;43.50;20.20;;;1.50;99.90;;;;;;5051444;28;20474;-52
2022/03/08 09:23:09;;;;;;;44.20;20.33;;;1.40;99.90;;;;;;5051516;28;20091;-54
2022/03/08 09:25:36;;;;;;;42.85;20.10;;;1.50;99.90;;;;;;5047046;28;20040;-53
2022/03/08 09:28:06;;;;;;;40.10;19.50;;;1.60;99.90;;;;;;5051500;28;20455;-53
2022/03/08 09:30:35;;;;;;;40.75;20.70;;;1.70;99.90;;;;;;5050993;28;20049;-52
2022/03/08 09:33:02;;;;;;;51.08;19.55;;;1.80;99.80;;;;;;5047550;28;20056;-52
2022/03/08 09:35:30;;;;;;;41.35;19.27;;;1.90;99.00;;;;;;5051184;28;20501;-55
2022/03/08 09:37:57;;;;;;;43.95;19.42;;;1.80;98.80;;;;;;5051318;28;20045;-52
2022/03/08 09:40:25;;;;;;;38.03;18.20;;;1.90;98.40;;;;;;5050653;28;20120;-56
2022/03/08 09:42:52;;;;;;;37.92;17.30;;;2.00;97.80;;;;;;5043586;28;20088;-53
2022/03/08 09:45:19;;;;;;;39.42;18.30;;;2.20;97.80;;;;;;5050724;28;20029;-52
2022/03/08 09:47:47;;;;;;;36.55;17.98;;;2.30;96.60;;;;;;5051346;28;20044;-56
2022/03/08 09:50:15;;;;;;;35.00;17.23;;;2.40;96.50;;;;;;5051009;28;20041;-55
2022/03/08 09:52:46;;;;;;;39.50;19.23;;;2.50;96.00;;;;;;5046468;28;20052;-56
2022/03/08 09:55:15;;;;;;;;;;;2.50;96.00;;;;;;5050142;28;20047;-55
2022/03/08 09:57:43;;;;;;;36.65;16.40;;;2.40;95.80;;;;;;5050914;28;19920;-55
2022/03/08 10:00:11;;;;;;;32.58;16.35;;;2.70;94.10;;;;;;5051092;28;20072;-55
2022/03/08 10:02:48;;;;;;;35.03;17.58;;;2.70;93.50;;;;;;5048903;28;20041;-55
2022/03/08 10:05:20;;;;;;;36.50;16.92;;;2.80;93.40;;;;;;5031217;28;20487;-55
2022/03/08 10:08:10;;;;;;;35.05;17.23;;;2.80;93.10;;;;;;5030822;28;20045;-54
2022/03/08 10:10:45;;;;;;;34.40;17.23;;;2.90;93.00;;;;;;5037719;28;20049;-54
2022/03/08 10:13:22;;;;;;;36.22;17.35;;;3.00;93.20;;;;;;5044348;28;20045;-56
2022/03/08 10:16:28;;;;;;;37.45;16.58;;;3.20;92.50;;;;;;5050946;28;20073;-56
2022/03/08 10:18:56;;;;;;;31.27;15.57;;;3.30;91.80;;;;;;5048274;28;20053;-56
2022/03/08 10:21:41;;;;;;;31.77;16.40;;;3.40;91.40;;;;;;5050875;28;20049;-55
2022/03/08 10:24:19;;;;;;;34.47;16.63;;;3.40;90.70;;;;;;5050803;28;20382;-56
2022/03/08 10:26:58;;;;;;;33.17;16.35;;;3.30;90.40;;;;;;5047415;28;20071;-56
2022/03/08 10:29:31;;;;;;;28.83;15.82;;;3.40;90.80;;;;;;5050585;28;20041;-52
2022/03/08 10:32:08;;;;;;;34.13;16.90;;;3.40;90.60;;;;;;5050913;28;20091;-57
2022/03/08 10:34:36;;;;;;;35.25;17.40;;;3.50;90.30;;;;;;5049913;28;20052;-55
2022/03/08 10:37:10;;;;;;;34.85;17.50;;;3.60;90.80;;;;;;5050435;28;20579;-55
2022/03/08 10:39:54;;;;;;;38.10;17.88;;;3.60;90.40;;;;;;5050100;28;20045;-55
2022/03/08 10:42:27;;;;;;;34.72;17.40;;;3.70;90.40;;;;;;5050723;28;20120;-56
2022/03/08 10:45:20;;;;;;;34.63;17.23;;;3.80;89.90;;;;;;5046922;28;20037;-56
2022/03/08 10:47:53;;;;;;;36.70;17.20;;;3.80;89.50;;;;;;5047555;28;20049;-54
2022/03/08 10:50:26;;;;;;;30.80;16.75;;;3.90;88.10;;;;;;5050484;28;20037;-57
2022/03/08 10:52:55;;;;;;;35.50;17.92;;;3.90;87.30;;;;;;5053437;28;20059;-56
2022/03/08 10:55:23;;;;;;;40.58;17.48;;;3.90;87.10;;;;;;5047562;28;20048;-56
2022/03/08 10:57:55;;;;;;;32.10;15.27;;;4.00;86.50;;;;;;5053892;28;20098;-55
2022/03/08 11:00:31;;;;;;;32.60;16.80;;;4.10;85.10;;;;;;5053618;28;20646;-53
2022/03/08 11:03:01;;;;;;;34.45;17.30;;;3.90;86.10;;;;;;5052495;28;20116;-55
2022/03/08 11:05:39;;;;;;;34.50;17.27;;;4.00;84.60;;;;;;5048194;28;20405;-54
2022/03/08 11:08:07;;;;;;;34.67;16.02;;;4.00;84.80;;;;;;5053760;28;20053;-55
2022/03/08 11:10:35;;;;;;;53.55;17.13;;;4.10;83.00;;;;;;5053662;28;20489;-55
2022/03/08 11:13:04;;;;;;;34.15;16.33;;;4.10;82.40;;;;;;5046996;28;20405;-54
2022/03/08 11:15:34;;;;;;;32.03;16.55;;;4.20;82.10;;;;;;5053762;28;20045;-55
2022/03/08 11:18:03;;;;;;;34.88;17.60;;;4.30;82.40;;;;;;5053709;28;20140;-55
2022/03/08 11:20:30;;;;;;;33.35;16.92;;;4.30;82.40;;;;;;5051828;28;20052;-55
2022/03/08 11:22:58;;;;;;;31.35;14.68;;;4.50;80.50;;;;;;5053459;28;20502;-57
2022/03/08 11:25:28;;;;;;;29.77;15.57;;;4.60;80.30;;;;;;5053456;28;20456;-56
2022/03/08 11:28:15;;;;;;;36.78;15.57;;;4.90;81.30;;;;;;5051554;28;20497;-57
2022/03/08 11:30:46;;;;;;;29.92;15.40;;;5.00;80.30;;;;;;5053580;28;20432;-56
2022/03/08 11:33:48;;;;;;;38.33;16.10;;;5.20;78.50;;;;;;5053328;28;20563;-55
2022/03/08 11:36:30;;;;;;;23.35;12.93;;;5.10;76.10;;;;;;5047786;28;20517;-57
2022/03/08 11:39:15;;;;;;;23.42;12.50;;;5.10;76.80;;;;;;5052747;28;20159;-57
2022/03/08 11:41:43;;;;;;;22.38;12.35;;;5.10;73.50;;;;;;5053377;28;20489;-56
2022/03/08 11:44:33;;;;;;;29.13;12.95;;;5.10;73.80;;;;;;5053011;28;20064;-57
2022/03/08 11:47:12;;;;;;;24.58;12.57;;;5.20;71.60;;;;;;5051879;28;20039;-56
2022/03/08 11:49:53;;;;;;;25.60;13.35;;;5.20;72.10;;;;;;5052919;28;20044;-57
2022/03/08 11:52:30;;;;;;;23.70;12.95;;;5.30;72.30;;;;;;5053052;28;20064;-54
2022/03/08 11:55:08;;;;;;;17.15;9.13;;;5.30;70.60;;;;;;5050808;28;20045;-57
2022/03/08 11:57:58;;;;;;;21.58;11.88;;;5.20;71.80;;;;;;5052842;28;20057;-56
2022/03/08 12:00:33;;;;;;;27.60;13.80;;;5.30;69.20;;;;;;5052434;28;20094;-57
2022/03/08 12:03:06;;;;;;;26.65;12.48;;;5.10;70.40;;;;;;5051949;28;20049;-54
2022/03/08 12:05:57;;;;;;;28.15;11.98;;;5.00;69.30;;;;;;5047772;28;20041;-56
2022/03/08 12:08:28;;;;;;;16.00;8.65;;;5.20;70.60;;;;;;5032583;28;20429;-57
2022/03/08 12:11:25;;;;;;;16.45;8.63;;;5.40;64.00;;;;;;5032565;28;20084;-56
2022/03/08 12:14:13;;;;;;;22.25;9.55;;;5.50;67.20;;;;;;5041328;28;20057;-57
2022/03/08 12:16:46;;;;;;;17.33;9.27;;;5.60;63.20;;;;;;5052649;28;20045;-57
2022/03/08 12:19:29;;;;;;;19.92;10.23;;;5.70;64.10;;;;;;5052165;28;20440;-57
2022/03/08 12:21:56;;;;;;;18.23;9.50;;;5.80;64.30;;;;;;5046776;28;20045;-57
2022/03/08 12:24:23;;;;;;;19.15;10.73;;;5.80;62.70;;;;;;5052381;28;20048;-56
2022/03/08 12:26:59;;;;;;;16.33;9.38;;;5.90;64.50;;;;;;5052281;28;20040;-57
2022/03/08 12:30:05;;;;;;;18.88;9.68;;;5.90;63.70;;;;;;5052228;28;20037;-55
2022/03/08 12:32:37;;;;;;;17.73;10.13;;;5.90;63.30;;;;;;5046826;28;20045;-57
2022/03/08 12:35:13;;;;;;;18.30;9.88;;;5.90;63.80;;;;;;5052200;28;20037;-57
2022/03/08 12:37:49;;;;;;;23.45;11.18;;;6.00;64.80;;;;;;5052431;28;20108;-57
2022/03/08 12:40:19;;;;;;;20.77;11.05;;;6.00;63.90;;;;;;5049112;28;20049;-57
2022/03/08 12:42:57;;;;;;;22.48;11.10;;;6.10;62.40;;;;;;5052018;28;20120;-58